createdAt,value
2018-12-31T00:00:50.862Z,92.51
2018-12-31T00:01:50.850Z,92.41
2018-12-31T00:02:50.846Z,91.99
2018-12-31T00:03:50.847Z,92.51
2018-12-31T00:04:50.852Z,92.35
2018-12-31T00:05:50.811Z,92.03
2018-12-31T00:06:50.798Z,92.86
2018-12-31T00:07:50.786Z,93.28
2018-12-31T00:08:50.799Z,92.72
2018-12-31T00:09:50.783Z,92.93
2018-12-31T00:10:50.750Z,92.82
2018-12-31T00:11:50.745Z,92.82
2018-12-31T00:12:50.727Z,93.02
2018-12-31T00:13:50.714Z,93.23
2018-12-31T00:14:50.746Z,92.72
2018-12-31T00:15:50.702Z,92.61
2018-12-31T00:16:50.684Z,92.30
2018-12-31T00:17:50.670Z,93.02
2018-12-31T00:18:50.663Z,92.82
2018-12-31T00:19:50.855Z,92.72
2018-12-31T00:20:50.642Z,92.82
2018-12-31T00:21:50.626Z,92.97
2018-12-31T00:22:50.645Z,93.44
2018-12-31T00:23:50.609Z,93.28
2018-12-31T00:24:50.610Z,93.13
2018-12-31T00:25:50.584Z,92.72
2018-12-31T00:26:50.577Z,92.82
2018-12-31T00:27:50.561Z,93.18
2018-12-31T00:28:50.548Z,92.82
2018-12-31T00:29:50.604Z,93.44
2018-12-31T00:30:50.528Z,93.23
2018-12-31T00:31:50.533Z,92.93
2018-12-31T00:32:50.504Z,93.33
2018-12-31T00:33:50.497Z,93.33
2018-12-31T00:34:50.483Z,93.23
2018-12-31T00:35:50.492Z,93.23
2018-12-31T00:36:50.460Z,92.93
2018-12-31T00:37:50.454Z,92.72
2018-12-31T00:38:51.175Z,92.93
2018-12-31T00:39:50.426Z,92.93
2018-12-31T00:40:50.436Z,92.82
2018-12-31T00:41:50.422Z,93.23
2018-12-31T00:42:50.395Z,93.23
2018-12-31T00:43:50.386Z,92.82
2018-12-31T00:44:50.375Z,93.49
2018-12-31T00:45:50.379Z,93.18
2018-12-31T00:46:50.349Z,93.02
2018-12-31T00:47:50.335Z,93.54
2018-12-31T00:48:50.323Z,94.01
2018-12-31T00:49:50.316Z,93.85
2018-12-31T00:50:50.327Z,94.37
2018-12-31T00:51:50.295Z,93.70
2018-12-31T00:52:50.282Z,93.96
2018-12-31T00:53:50.270Z,94.37
2018-12-31T00:54:50.263Z,94.58
2018-12-31T00:55:50.269Z,93.75
2018-12-31T00:56:50.238Z,93.75
2018-12-31T00:57:50.227Z,93.54
2018-12-31T00:58:50.219Z,94.27
2018-12-31T00:59:50.208Z,93.75
2018-12-31T01:00:50.226Z,93.65
2018-12-31T01:01:50.191Z,93.75
2018-12-31T01:02:50.174Z,94.06
2018-12-31T01:03:50.166Z,93.54
2018-12-31T01:04:50.149Z,94.48
2018-12-31T01:05:50.131Z,94.32
2018-12-31T01:06:50.149Z,94.21
2018-12-31T01:07:50.112Z,94.17
2018-12-31T01:08:50.109Z,94.01
2018-12-31T01:09:50.088Z,94.01
2018-12-31T01:10:50.079Z,94.01
2018-12-31T01:11:50.083Z,95.00
2018-12-31T01:12:50.062Z,94.79
2018-12-31T01:13:50.049Z,94.42
2018-12-31T01:14:50.041Z,93.85
2018-12-31T01:15:50.023Z,93.75
2018-12-31T01:16:50.063Z,94.06
2018-12-31T01:17:50.015Z,95.00
2018-12-31T01:18:49.993Z,94.48
2018-12-31T01:19:49.982Z,94.68
2018-12-31T01:20:49.968Z,94.79
2018-12-31T01:21:49.979Z,94.37
2018-12-31T01:22:49.946Z,93.85
2018-12-31T01:23:49.933Z,94.06
2018-12-31T01:24:49.925Z,94.58
2018-12-31T01:25:49.909Z,93.96
2018-12-31T01:26:49.924Z,94.53
2018-12-31T01:27:49.890Z,94.79
2018-12-31T01:28:49.889Z,94.48
2018-12-31T01:29:49.867Z,94.68
2018-12-31T01:30:49.857Z,94.48
2018-12-31T01:31:49.869Z,94.89
2018-12-31T01:32:49.835Z,94.68
2018-12-31T01:33:49.826Z,94.42
2018-12-31T01:34:49.824Z,94.42
2018-12-31T01:35:49.809Z,94.94
2018-12-31T01:36:49.809Z,94.58
2018-12-31T01:37:49.779Z,94.37
2018-12-31T01:38:49.771Z,94.89
2018-12-31T01:39:49.758Z,94.79
2018-12-31T01:40:49.745Z,94.89
2018-12-31T01:41:49.749Z,94.84
2018-12-31T01:42:49.727Z,94.79
2018-12-31T01:43:49.718Z,94.27
2018-12-31T01:44:49.704Z,94.68
2018-12-31T01:45:49.691Z,94.79
2018-12-31T01:46:49.698Z,94.63
2018-12-31T01:47:49.661Z,94.58
2018-12-31T01:48:49.655Z,94.17
2018-12-31T01:49:49.641Z,94.68
2018-12-31T01:50:49.638Z,94.48
2018-12-31T01:51:49.642Z,94.48
2018-12-31T01:52:49.613Z,94.37
2018-12-31T01:53:49.596Z,94.48
2018-12-31T01:54:49.588Z,94.58
2018-12-31T01:55:49.576Z,94.58
2018-12-31T01:56:49.598Z,94.84
2018-12-31T01:57:49.552Z,94.32
2018-12-31T01:58:49.542Z,94.53
2018-12-31T01:59:49.534Z,94.89
2018-12-31T02:00:49.517Z,94.37
2018-12-31T02:01:49.512Z,94.48
2018-12-31T02:02:49.520Z,94.48
2018-12-31T02:03:49.488Z,94.37
2018-12-31T02:04:49.480Z,94.27
2018-12-31T02:05:49.462Z,94.37
2018-12-31T02:06:49.456Z,94.27
2018-12-31T02:07:49.460Z,94.89
2018-12-31T02:08:49.436Z,94.37
2018-12-31T02:09:49.418Z,94.37
2018-12-31T02:10:49.408Z,94.27
2018-12-31T02:11:49.397Z,94.48
2018-12-31T02:12:49.410Z,94.37
2018-12-31T02:13:49.376Z,94.37
2018-12-31T02:14:49.455Z,94.79
2018-12-31T02:15:49.358Z,94.58
2018-12-31T02:16:49.340Z,94.68
2018-12-31T02:17:49.462Z,94.27
2018-12-31T02:18:49.322Z,94.89
2018-12-31T02:19:49.309Z,95.00
2018-12-31T02:20:49.300Z,95.00
2018-12-31T02:21:49.282Z,95.00
2018-12-31T02:22:49.292Z,94.79
2018-12-31T02:23:49.262Z,94.79
2018-12-31T02:24:49.254Z,94.89
2018-12-31T02:25:49.244Z,95.20
2018-12-31T02:26:49.228Z,94.79
2018-12-31T02:27:49.240Z,94.79
2018-12-31T02:28:49.207Z,94.89
2018-12-31T02:29:49.192Z,95.10
2018-12-31T02:30:49.188Z,94.58
2018-12-31T02:31:49.171Z,95.10
2018-12-31T02:32:49.167Z,95.31
2018-12-31T02:33:49.183Z,94.79
2018-12-31T02:34:49.145Z,94.79
2018-12-31T02:35:49.130Z,94.89
2018-12-31T02:36:49.124Z,94.89
2018-12-31T02:37:49.107Z,94.79
2018-12-31T02:38:49.116Z,94.79
2018-12-31T02:39:49.089Z,94.89
2018-12-31T02:40:49.076Z,94.89
2018-12-31T02:41:49.071Z,94.79
2018-12-31T02:42:49.054Z,94.89
2018-12-31T02:43:49.065Z,95.20
2018-12-31T02:44:49.029Z,94.79
2018-12-31T02:45:49.020Z,95.10
2018-12-31T02:46:49.003Z,95.10
2018-12-31T02:47:48.996Z,94.58
2018-12-31T02:48:49.001Z,94.79
2018-12-31T02:49:48.974Z,94.33
2018-12-31T02:50:48.959Z,95.00
2018-12-31T02:51:48.948Z,94.89
2018-12-31T02:52:48.944Z,94.89
2018-12-31T02:53:48.945Z,94.48
2018-12-31T02:54:48.918Z,95.00
2018-12-31T02:55:48.904Z,95.00
2018-12-31T02:56:48.896Z,94.89
2018-12-31T02:57:48.884Z,94.89
2018-12-31T02:58:48.892Z,94.68
2018-12-31T02:59:48.868Z,94.58
2018-12-31T03:00:48.854Z,94.89
2018-12-31T03:01:48.844Z,95.51
2018-12-31T03:02:48.826Z,95.20
2018-12-31T03:03:48.830Z,95.00
2018-12-31T03:04:48.810Z,95.20
2018-12-31T03:05:48.800Z,95.10
2018-12-31T03:06:48.793Z,94.89
2018-12-31T03:07:48.774Z,94.79
2018-12-31T03:08:48.781Z,94.89
2018-12-31T03:09:48.772Z,95.16
2018-12-31T03:10:48.737Z,95.16
2018-12-31T03:11:48.726Z,94.89
2018-12-31T03:12:48.714Z,94.95
2018-12-31T03:13:48.742Z,95.06
2018-12-31T03:14:48.690Z,94.85
2018-12-31T03:15:48.689Z,94.12
2018-12-31T03:16:48.681Z,94.85
2018-12-31T03:17:48.658Z,94.74
2018-12-31T03:18:48.676Z,94.64
2018-12-31T03:19:48.636Z,94.23
2018-12-31T03:20:48.629Z,94.85
2018-12-31T03:21:48.616Z,94.95
2018-12-31T03:22:48.612Z,94.95
2018-12-31T03:23:48.658Z,94.54
2018-12-31T03:24:48.580Z,94.64
2018-12-31T03:25:48.578Z,94.33
2018-12-31T03:26:48.557Z,94.85
2018-12-31T03:27:48.549Z,94.85
2018-12-31T03:28:48.540Z,94.64
2018-12-31T03:29:48.541Z,94.85
2018-12-31T03:30:48.516Z,94.79
2018-12-31T03:31:48.516Z,94.74
2018-12-31T03:32:48.505Z,94.79
2018-12-31T03:33:48.485Z,95.20
2018-12-31T03:34:48.545Z,95.00
2018-12-31T03:35:48.458Z,95.10
2018-12-31T03:36:48.446Z,95.00
2018-12-31T03:37:48.440Z,94.58
2018-12-31T03:38:48.429Z,94.89
2018-12-31T03:39:48.431Z,94.95
2018-12-31T03:40:48.406Z,94.68
2018-12-31T03:41:48.393Z,94.79
2018-12-31T03:42:48.383Z,94.79
2018-12-31T03:43:48.373Z,94.58
2018-12-31T03:44:48.386Z,95.16
2018-12-31T03:45:48.352Z,94.79
2018-12-31T03:46:48.335Z,94.89
2018-12-31T03:47:48.330Z,94.79
2018-12-31T03:48:48.315Z,94.89
2018-12-31T03:49:48.319Z,94.58
2018-12-31T03:50:48.300Z,94.89
2018-12-31T03:51:48.278Z,94.89
2018-12-31T03:52:48.273Z,95.00
2018-12-31T03:53:48.260Z,94.48
2018-12-31T03:54:48.271Z,95.31
2018-12-31T03:55:48.238Z,95.10
2018-12-31T03:56:50.397Z,95.00
2018-12-31T03:57:48.217Z,95.10
2018-12-31T03:58:48.203Z,95.51
2018-12-31T03:59:48.211Z,95.31
2018-12-31T04:00:48.183Z,95.10
2018-12-31T04:01:48.171Z,94.79
2018-12-31T04:02:48.163Z,95.10
2018-12-31T04:03:48.146Z,95.10
2018-12-31T04:04:48.150Z,95.51
2018-12-31T04:05:48.126Z,95.83
2018-12-31T04:06:48.115Z,95.83
2018-12-31T04:07:53.036Z,95.72
2018-12-31T04:08:49.091Z,95.72
2018-12-31T04:09:48.104Z,95.72
2018-12-31T04:10:48.071Z,95.83
2018-12-31T04:11:48.059Z,95.72
2018-12-31T04:12:48.047Z,95.62
2018-12-31T04:13:48.037Z,96.03
2018-12-31T04:14:48.025Z,96.03
2018-12-31T04:15:48.033Z,95.51
2018-12-31T04:16:48.003Z,95.72
2018-12-31T04:17:47.991Z,95.83
2018-12-31T04:18:47.980Z,95.72
2018-12-31T04:19:47.978Z,95.62
2018-12-31T04:20:47.972Z,95.83
2018-12-31T04:21:47.945Z,96.03
2018-12-31T04:22:47.934Z,95.93
2018-12-31T04:23:47.917Z,96.14
2018-12-31T04:24:47.915Z,96.03
2018-12-31T04:25:47.921Z,95.20
2018-12-31T04:26:47.891Z,95.41
2018-12-31T04:27:47.877Z,95.62
2018-12-31T04:28:47.872Z,95.51
2018-12-31T04:29:47.860Z,94.79
2018-12-31T04:30:47.864Z,95.31
2018-12-31T04:31:47.831Z,95.10
2018-12-31T04:32:47.821Z,95.00
2018-12-31T04:33:47.813Z,95.10
2018-12-31T04:34:47.812Z,95.00
2018-12-31T04:35:47.841Z,95.20
2018-12-31T04:36:47.781Z,95.10
2018-12-31T04:37:47.769Z,95.51
2018-12-31T04:38:47.754Z,94.89
2018-12-31T04:39:47.740Z,95.00
2018-12-31T04:40:47.749Z,94.64
2018-12-31T04:41:47.718Z,95.26
2018-12-31T04:42:47.721Z,94.85
2018-12-31T04:43:47.700Z,94.74
2018-12-31T04:44:47.685Z,95.16
2018-12-31T04:45:47.696Z,95.20
2018-12-31T04:46:47.663Z,94.64
2018-12-31T04:47:47.655Z,94.95
2018-12-31T04:48:47.641Z,95.10
2018-12-31T04:49:47.632Z,94.79
2018-12-31T04:50:47.675Z,94.58
2018-12-31T04:51:47.614Z,95.00
2018-12-31T04:52:47.599Z,94.89
2018-12-31T04:53:47.599Z,95.10
2018-12-31T04:54:47.574Z,95.10
2018-12-31T04:55:47.600Z,94.58
2018-12-31T04:56:47.551Z,95.41
2018-12-31T04:57:47.592Z,94.89
2018-12-31T04:58:47.532Z,94.85
2018-12-31T04:59:47.518Z,94.89
2018-12-31T05:00:47.509Z,95.20
2018-12-31T05:01:47.513Z,95.20
2018-12-31T05:02:47.492Z,95.10
2018-12-31T05:03:47.475Z,95.10
2018-12-31T05:04:47.463Z,94.79
2018-12-31T05:05:47.454Z,95.10
2018-12-31T05:06:47.454Z,95.37
2018-12-31T05:07:47.431Z,95.00
2018-12-31T05:08:47.418Z,94.74
2018-12-31T05:09:47.409Z,94.95
2018-12-31T05:10:47.404Z,94.89
2018-12-31T05:11:47.409Z,95.06
2018-12-31T05:12:47.372Z,95.93
2018-12-31T05:13:47.371Z,94.95
2018-12-31T05:14:47.353Z,95.26
2018-12-31T05:15:47.352Z,94.43
2018-12-31T05:16:47.345Z,94.95
2018-12-31T05:17:47.317Z,94.74
2018-12-31T05:18:47.305Z,94.74
2018-12-31T05:19:47.311Z,94.64
2018-12-31T05:20:47.285Z,95.16
2018-12-31T05:21:47.291Z,94.95
2018-12-31T05:22:47.267Z,94.54
2018-12-31T05:23:47.255Z,95.06
2018-12-31T05:24:47.239Z,94.79
2018-12-31T05:25:47.240Z,94.64
2018-12-31T05:26:47.317Z,94.74
2018-12-31T05:27:47.217Z,95.26
2018-12-31T05:28:47.193Z,94.95
2018-12-31T05:29:47.187Z,95.16
2018-12-31T05:30:47.171Z,95.26
2018-12-31T05:31:47.185Z,94.64
2018-12-31T05:32:47.152Z,94.54
2018-12-31T05:33:47.153Z,94.74
2018-12-31T05:34:47.135Z,94.89
2018-12-31T05:35:47.120Z,95.10
2018-12-31T05:36:47.159Z,95.62
2018-12-31T05:37:47.095Z,95.41
2018-12-31T05:38:47.088Z,95.83
2018-12-31T05:39:47.074Z,95.83
2018-12-31T05:40:47.067Z,95.72
2018-12-31T05:41:47.065Z,95.62
2018-12-31T05:42:47.059Z,95.62
2018-12-31T05:43:47.027Z,95.62
2018-12-31T05:44:47.021Z,95.62
2018-12-31T05:45:47.005Z,95.62
2018-12-31T05:46:46.993Z,95.83
2018-12-31T05:47:46.998Z,95.62
2018-12-31T05:48:46.974Z,95.72
2018-12-31T05:49:46.964Z,95.51
2018-12-31T05:50:46.960Z,95.51
2018-12-31T05:51:46.935Z,95.51
2018-12-31T05:52:46.943Z,95.41
2018-12-31T05:53:46.914Z,95.41
2018-12-31T05:54:46.907Z,95.51
2018-12-31T05:55:46.895Z,95.37
2018-12-31T05:56:46.881Z,95.68
2018-12-31T05:57:46.906Z,95.99
2018-12-31T05:58:46.858Z,94.85
2018-12-31T05:59:46.851Z,95.16
2018-12-31T06:00:46.838Z,95.26
2018-12-31T06:01:46.828Z,95.06
2018-12-31T06:02:46.837Z,95.06
2018-12-31T06:03:46.803Z,94.43
2018-12-31T06:04:46.790Z,94.81
2018-12-31T06:05:46.789Z,94.60
2018-12-31T06:06:46.775Z,94.70
2018-12-31T06:07:46.778Z,94.60
2018-12-31T06:08:46.757Z,94.54
2018-12-31T06:09:46.735Z,94.64
2018-12-31T06:10:46.725Z,94.60
2018-12-31T06:11:46.718Z,95.01
2018-12-31T06:12:46.719Z,94.70
2018-12-31T06:13:46.694Z,94.70
2018-12-31T06:14:46.684Z,94.81
2018-12-31T06:15:46.669Z,94.60
2018-12-31T06:16:46.660Z,94.60
2018-12-31T06:17:46.665Z,95.12
2018-12-31T06:18:46.638Z,94.70
2018-12-31T06:19:46.623Z,95.12
2018-12-31T06:20:46.615Z,94.91
2018-12-31T06:21:46.603Z,94.60
2018-12-31T06:22:46.612Z,94.91
2018-12-31T06:23:46.585Z,94.39
2018-12-31T06:24:46.575Z,94.60
2018-12-31T06:25:46.560Z,94.49
2018-12-31T06:26:46.552Z,95.01
2018-12-31T06:27:46.581Z,94.81
2018-12-31T06:28:46.523Z,94.70
2018-12-31T06:29:46.516Z,95.12
2018-12-31T06:30:46.499Z,95.12
2018-12-31T06:31:46.490Z,95.01
2018-12-31T06:32:46.479Z,95.12
2018-12-31T06:33:46.483Z,95.12
2018-12-31T06:34:46.456Z,95.01
2018-12-31T06:35:46.450Z,94.81
2018-12-31T06:36:46.435Z,94.70
2018-12-31T06:37:46.423Z,94.70
2018-12-31T06:38:46.435Z,94.70
2018-12-31T06:39:46.408Z,94.81
2018-12-31T06:40:46.389Z,94.70
2018-12-31T06:41:46.383Z,94.66
2018-12-31T06:42:46.366Z,94.66
2018-12-31T06:43:46.372Z,94.35
2018-12-31T06:44:46.346Z,94.87
2018-12-31T06:45:46.335Z,94.39
2018-12-31T06:46:46.328Z,94.56
2018-12-31T06:47:46.311Z,94.76
2018-12-31T06:48:46.314Z,94.56
2018-12-31T06:49:46.296Z,95.39
2018-12-31T06:50:46.295Z,94.66
2018-12-31T06:51:46.267Z,95.01
2018-12-31T06:52:46.261Z,95.22
2018-12-31T06:53:46.263Z,95.64
2018-12-31T06:54:46.235Z,96.01
2018-12-31T06:55:46.219Z,95.07
2018-12-31T06:56:46.223Z,95.07
2018-12-31T06:57:46.201Z,95.07
2018-12-31T06:58:46.206Z,95.84
2018-12-31T06:59:46.173Z,95.84
2018-12-31T07:00:46.161Z,95.22
2018-12-31T07:01:46.157Z,95.84
2018-12-31T07:02:46.143Z,95.95
2018-12-31T07:03:46.159Z,96.15
2018-12-31T07:04:46.125Z,95.64
2018-12-31T07:05:46.108Z,95.80
2018-12-31T07:06:46.098Z,95.74
2018-12-31T07:07:46.085Z,96.05
2018-12-31T07:08:46.073Z,96.05
2018-12-31T07:09:46.081Z,96.05
2018-12-31T07:10:46.052Z,96.26
2018-12-31T07:11:46.045Z,96.31
2018-12-31T07:12:46.031Z,96.31
2018-12-31T07:13:46.033Z,96.98
2018-12-31T07:14:46.025Z,96.57
2018-12-31T07:15:45.997Z,96.26
2018-12-31T07:16:45.988Z,96.67
2018-12-31T07:17:45.977Z,96.78
2018-12-31T07:18:45.965Z,96.78
2018-12-31T07:19:45.967Z,96.01
2018-12-31T07:20:45.939Z,96.52
2018-12-31T07:21:45.939Z,96.73
2018-12-31T07:22:45.920Z,96.73
2018-12-31T07:23:45.919Z,96.42
2018-12-31T07:24:45.918Z,96.21
2018-12-31T07:25:45.881Z,96.21
2018-12-31T07:26:45.897Z,96.11
2018-12-31T07:27:45.865Z,96.83
2018-12-31T07:28:45.852Z,96.52
2018-12-31T07:29:45.879Z,96.31
2018-12-31T07:30:45.835Z,96.31
2018-12-31T07:31:45.876Z,96.62
2018-12-31T07:32:45.817Z,96.42
2018-12-31T07:33:45.809Z,96.11
2018-12-31T07:34:45.804Z,96.21
2018-12-31T07:35:45.774Z,96.21
2018-12-31T07:36:45.776Z,95.90
2018-12-31T07:37:45.751Z,96.11
2018-12-31T07:38:45.741Z,96.11
2018-12-31T07:39:45.754Z,96.11
2018-12-31T07:40:45.719Z,96.21
2018-12-31T07:41:45.710Z,95.80
2018-12-31T07:42:45.701Z,95.90
2018-12-31T07:43:45.681Z,95.90
2018-12-31T07:44:45.708Z,96.11
2018-12-31T07:45:45.665Z,96.11
2018-12-31T07:46:45.647Z,95.65
2018-12-31T07:47:45.642Z,95.90
2018-12-31T07:48:45.629Z,95.59
2018-12-31T07:49:45.620Z,95.96
2018-12-31T07:50:45.627Z,96.11
2018-12-31T07:51:45.597Z,96.21
2018-12-31T07:52:45.581Z,96.01
2018-12-31T07:53:45.631Z,95.54
2018-12-31T07:54:45.559Z,95.39
2018-12-31T07:55:45.573Z,95.39
2018-12-31T07:56:45.539Z,94.97
2018-12-31T07:57:45.528Z,96.06
2018-12-31T07:58:45.525Z,95.39
2018-12-31T07:59:45.507Z,96.11
2018-12-31T08:00:45.510Z,95.24
2018-12-31T08:01:45.485Z,95.44
2018-12-31T08:02:45.476Z,95.39
2018-12-31T08:03:45.461Z,95.65
2018-12-31T08:04:45.450Z,95.86
2018-12-31T08:05:45.457Z,94.76
2018-12-31T08:06:45.425Z,94.93
2018-12-31T08:07:45.411Z,95.34
2018-12-31T08:08:45.399Z,95.03
2018-12-31T08:09:45.392Z,94.72
2018-12-31T08:10:45.399Z,95.03
2018-12-31T08:11:45.373Z,94.82
2018-12-31T08:12:45.365Z,94.72
2018-12-31T08:13:45.351Z,94.72
2018-12-31T08:14:45.339Z,94.82
2018-12-31T08:15:45.347Z,94.37
2018-12-31T08:16:45.313Z,94.20
2018-12-31T08:17:45.321Z,94.20
2018-12-31T08:18:45.292Z,94.26
2018-12-31T08:19:45.306Z,94.37
2018-12-31T08:20:45.286Z,93.85
2018-12-31T08:21:45.259Z,93.64
2018-12-31T08:22:45.247Z,93.95
2018-12-31T08:23:45.236Z,94.06
2018-12-31T08:24:45.224Z,93.43
2018-12-31T08:25:45.328Z,93.33
2018-12-31T08:26:45.241Z,93.43
2018-12-31T08:27:45.194Z,93.64
2018-12-31T08:28:45.182Z,93.54
2018-12-31T08:29:45.179Z,93.39
2018-12-31T08:30:45.185Z,92.91
2018-12-31T08:31:45.147Z,93.18
2018-12-31T08:32:45.139Z,92.57
2018-12-31T08:33:45.128Z,92.97
2018-12-31T08:34:45.115Z,93.18
2018-12-31T08:35:45.098Z,92.67
2018-12-31T08:36:45.134Z,92.46
2018-12-31T08:37:45.081Z,92.46
2018-12-31T08:38:45.068Z,92.21
2018-12-31T08:39:45.055Z,92.46
2018-12-31T08:40:45.044Z,92.05
2018-12-31T08:41:45.058Z,92.72
2018-12-31T08:42:45.032Z,92.52
2018-12-31T08:43:45.012Z,92.52
2018-12-31T08:44:45.003Z,92.57
2018-12-31T08:45:44.989Z,92.77
2018-12-31T08:46:44.999Z,92.25
2018-12-31T08:47:44.973Z,92.57
2018-12-31T08:48:44.953Z,92.42
2018-12-31T08:49:44.938Z,92.67
2018-12-31T08:50:44.934Z,93.14
2018-12-31T08:51:44.934Z,92.77
2018-12-31T08:52:44.908Z,92.63
2018-12-31T08:53:44.897Z,92.21
2018-12-31T08:54:44.884Z,92.11
2018-12-31T08:55:44.874Z,91.69
2018-12-31T08:56:44.880Z,92.11
2018-12-31T08:57:44.855Z,91.90
2018-12-31T08:58:44.840Z,91.90
2018-12-31T08:59:44.833Z,91.65
2018-12-31T09:00:44.825Z,91.34
2018-12-31T09:01:44.878Z,91.24
2018-12-31T09:02:44.798Z,90.72
2018-12-31T09:03:44.800Z,90.52
2018-12-31T09:04:44.775Z,91.13
2018-12-31T09:05:44.762Z,91.24
2018-12-31T09:06:44.818Z,90.62
2018-12-31T09:07:44.740Z,90.16
2018-12-31T09:08:44.737Z,90.10
2018-12-31T09:09:44.886Z,90.31
2018-12-31T09:10:44.756Z,91.40
2018-12-31T09:11:44.711Z,89.95
2018-12-31T09:12:44.686Z,89.44
2018-12-31T09:13:44.671Z,89.34
2018-12-31T09:14:44.666Z,89.03
2018-12-31T09:15:44.650Z,89.03
2018-12-31T09:16:44.668Z,89.34
2018-12-31T09:17:44.623Z,89.44
2018-12-31T09:18:44.617Z,89.54
2018-12-31T09:19:44.601Z,89.13
2018-12-31T09:20:44.625Z,88.71
2018-12-31T09:21:44.952Z,89.23
2018-12-31T09:22:44.566Z,88.51
2018-12-31T09:23:44.564Z,88.82
2018-12-31T09:24:44.823Z,88.92
2018-12-31T09:25:44.547Z,88.41
2018-12-31T09:26:44.554Z,87.99
2018-12-31T09:27:44.516Z,87.27
2018-12-31T09:28:44.510Z,87.48
2018-12-31T09:29:44.498Z,87.48
2018-12-31T09:30:44.479Z,87.68
2018-12-31T09:31:44.493Z,88.20
2018-12-31T09:32:44.494Z,87.79
2018-12-31T09:33:44.445Z,87.58
2018-12-31T09:34:44.439Z,88.41
2018-12-31T09:35:44.435Z,87.07
2018-12-31T09:36:44.476Z,86.86
2018-12-31T09:37:44.417Z,87.02
2018-12-31T09:38:44.393Z,87.34
2018-12-31T09:39:44.382Z,87.02
2018-12-31T09:40:44.393Z,85.78
2018-12-31T09:41:44.357Z,86.13
2018-12-31T09:42:44.423Z,85.99
2018-12-31T09:43:44.341Z,85.58
2018-12-31T09:44:44.343Z,85.44
2018-12-31T09:45:44.313Z,85.27
2018-12-31T09:46:44.299Z,85.99
2018-12-31T09:47:44.310Z,85.99
2018-12-31T09:48:44.278Z,86.10
2018-12-31T09:49:44.264Z,85.99
2018-12-31T09:50:44.260Z,85.68
2018-12-31T09:51:44.251Z,86.05
2018-12-31T09:52:44.249Z,85.33
2018-12-31T09:53:44.227Z,85.75
2018-12-31T09:54:44.213Z,85.75
2018-12-31T09:55:44.194Z,85.13
2018-12-31T09:56:44.194Z,85.23
2018-12-31T09:57:44.207Z,85.95
2018-12-31T09:58:44.187Z,85.44
2018-12-31T09:59:44.156Z,85.27
2018-12-31T10:00:44.142Z,86.16
2018-12-31T10:01:44.131Z,86.05
2018-12-31T10:02:44.123Z,86.16
2018-12-31T10:03:44.124Z,86.05
2018-12-31T10:04:44.098Z,85.85
2018-12-31T10:05:44.088Z,86.20
2018-12-31T10:06:44.068Z,86.78
2018-12-31T10:07:44.060Z,86.68
2018-12-31T10:08:49.139Z,86.43
2018-12-31T10:09:45.048Z,86.02
2018-12-31T10:10:44.035Z,85.85
2018-12-31T10:11:44.023Z,86.94
2018-12-31T10:12:44.005Z,87.08
2018-12-31T10:13:44.021Z,86.43
2018-12-31T10:14:43.986Z,87.15
2018-12-31T10:15:43.972Z,85.19
2018-12-31T10:16:43.961Z,85.36
2018-12-31T10:17:43.946Z,84.22
2018-12-31T10:18:43.964Z,84.19
2018-12-31T10:19:43.922Z,84.05
2018-12-31T10:20:43.917Z,83.32
2018-12-31T10:21:43.903Z,83.22
2018-12-31T10:22:43.895Z,83.22
2018-12-31T10:23:43.910Z,83.94
2018-12-31T10:24:43.869Z,83.77
2018-12-31T10:25:43.869Z,83.98
2018-12-31T10:26:43.852Z,84.08
2018-12-31T10:27:43.866Z,84.01
2018-12-31T10:28:43.854Z,85.05
2018-12-31T10:29:43.831Z,84.84
2018-12-31T10:30:43.799Z,84.29
2018-12-31T10:31:43.799Z,84.22
2018-12-31T10:32:43.784Z,84.29
2018-12-31T10:33:43.773Z,84.39
2018-12-31T10:34:43.778Z,84.43
2018-12-31T10:35:43.745Z,84.22
2018-12-31T10:36:43.735Z,84.39
2018-12-31T10:37:43.725Z,84.29
2018-12-31T10:38:43.711Z,85.46
2018-12-31T10:39:43.723Z,84.29
2018-12-31T10:40:43.695Z,84.19
2018-12-31T10:41:43.674Z,84.05
2018-12-31T10:42:43.663Z,83.12
2018-12-31T10:43:43.650Z,82.81
2018-12-31T10:44:43.663Z,83.07
2018-12-31T10:45:43.648Z,82.46
2018-12-31T10:46:43.623Z,81.70
2018-12-31T10:47:43.612Z,80.88
2018-12-31T10:48:43.601Z,80.47
2018-12-31T10:49:43.627Z,80.36
2018-12-31T10:50:43.583Z,79.95
2018-12-31T10:51:43.581Z,79.85
2018-12-31T10:52:43.555Z,80.57
2018-12-31T10:53:43.545Z,80.51
2018-12-31T10:54:43.551Z,81.84
2018-12-31T10:55:43.621Z,82.15
2018-12-31T10:56:43.536Z,82.15
2018-12-31T10:57:43.501Z,82.81
2018-12-31T10:58:43.489Z,82.95
2018-12-31T10:59:43.499Z,82.84
2018-12-31T11:00:43.467Z,83.36
2018-12-31T11:01:43.447Z,83.36
2018-12-31T11:02:43.451Z,83.47
2018-12-31T11:03:43.427Z,83.98
2018-12-31T11:04:43.417Z,84.29
2018-12-31T11:05:43.421Z,83.77
2018-12-31T11:06:43.393Z,83.77
2018-12-31T11:07:43.380Z,83.42
2018-12-31T11:08:43.391Z,82.50
2018-12-31T11:09:43.358Z,82.33
2018-12-31T11:10:43.365Z,82.60
2018-12-31T11:11:43.340Z,80.65
2018-12-31T11:12:43.329Z,80.30
2018-12-31T11:13:43.317Z,79.75
2018-12-31T11:14:43.304Z,79.33
2018-12-31T11:15:43.305Z,78.51
2018-12-31T11:16:43.280Z,77.34
2018-12-31T11:17:43.273Z,76.38
2018-12-31T11:18:43.258Z,77.10
2018-12-31T11:19:43.254Z,76.90
2018-12-31T11:20:43.266Z,77.31
2018-12-31T11:21:43.225Z,77.82
2018-12-31T11:22:43.209Z,77.72
2018-12-31T11:23:43.203Z,77.82
2018-12-31T11:24:43.189Z,77.92
2018-12-31T11:25:43.208Z,77.89
2018-12-31T11:26:43.176Z,77.82
2018-12-31T11:27:43.162Z,77.31
2018-12-31T11:28:43.147Z,77.20
2018-12-31T11:29:43.137Z,77.65
2018-12-31T11:30:43.122Z,78.13
2018-12-31T11:31:43.135Z,78.54
2018-12-31T11:32:43.095Z,78.23
2018-12-31T11:33:43.088Z,78.03
2018-12-31T11:34:43.083Z,78.68
2018-12-31T11:35:43.074Z,78.54
2018-12-31T11:36:43.081Z,78.33
2018-12-31T11:37:43.041Z,77.82
2018-12-31T11:38:43.036Z,77.75
2018-12-31T11:39:43.018Z,77.86
2018-12-31T11:40:43.098Z,77.96
2018-12-31T11:41:43.025Z,76.62
2018-12-31T11:42:42.983Z,75.39
2018-12-31T11:43:42.971Z,76.01
2018-12-31T11:44:42.961Z,76.56
2018-12-31T11:45:42.952Z,76.86
2018-12-31T11:46:43.041Z,76.35
2018-12-31T11:47:42.938Z,77.28
2018-12-31T11:48:42.915Z,77.89
2018-12-31T11:49:42.906Z,76.66
2018-12-31T11:50:42.893Z,78.51
2018-12-31T11:51:42.911Z,78.44
2018-12-31T11:52:42.880Z,78.24
2018-12-31T11:53:42.862Z,79.68
2018-12-31T11:54:42.850Z,79.58
2018-12-31T11:55:42.847Z,78.75
2018-12-31T11:56:42.847Z,79.37
2018-12-31T11:57:42.815Z,79.68
2018-12-31T11:58:42.811Z,79.79
2018-12-31T11:59:42.797Z,79.68
2018-12-31T12:00:42.783Z,79.99
2018-12-31T12:01:44.734Z,79.88
2018-12-31T12:02:42.765Z,79.68
2018-12-31T12:03:42.750Z,79.58
2018-12-31T12:04:42.748Z,79.58
2018-12-31T12:05:42.729Z,79.88
2018-12-31T12:06:42.737Z,79.99
2018-12-31T12:07:42.700Z,79.68
2018-12-31T12:08:42.690Z,79.79
2018-12-31T12:09:42.684Z,79.54
2018-12-31T12:10:42.680Z,78.55
2018-12-31T12:11:42.680Z,78.92
2018-12-31T12:12:42.646Z,78.65
2018-12-31T12:13:42.640Z,78.96
2018-12-31T12:14:42.624Z,78.86
2018-12-31T12:15:42.633Z,78.75
2018-12-31T12:16:42.644Z,78.75
2018-12-31T12:17:42.592Z,79.37
2018-12-31T12:18:42.576Z,79.64
2018-12-31T12:19:42.573Z,78.92
2018-12-31T12:20:42.558Z,79.54
2018-12-31T12:21:42.564Z,79.64
2018-12-31T12:22:42.534Z,79.75
2018-12-31T12:23:42.525Z,79.19
2018-12-31T12:24:42.527Z,78.30
2018-12-31T12:25:42.499Z,78.10
2018-12-31T12:26:42.516Z,78.30
2018-12-31T12:27:42.494Z,78.61
2018-12-31T12:28:42.467Z,78.51
2018-12-31T12:29:42.452Z,78.20
2018-12-31T12:30:42.449Z,78.82
2018-12-31T12:31:42.486Z,78.58
2018-12-31T12:32:42.425Z,79.44
2018-12-31T12:33:42.411Z,78.41
2018-12-31T12:34:42.398Z,78.82
2018-12-31T12:35:42.386Z,78.41
2018-12-31T12:36:42.400Z,78.89
2018-12-31T12:37:48.449Z,78.33
2018-12-31T12:38:43.357Z,78.23
2018-12-31T12:39:42.342Z,77.82
2018-12-31T12:40:42.329Z,77.37
2018-12-31T12:41:42.324Z,76.59
2018-12-31T12:42:42.330Z,76.55
2018-12-31T12:43:42.307Z,76.86
2018-12-31T12:44:42.284Z,77.06
2018-12-31T12:45:42.272Z,76.79
2018-12-31T12:46:42.263Z,77.82
2018-12-31T12:47:42.278Z,77.82
2018-12-31T12:48:42.240Z,78.03
2018-12-31T12:49:42.231Z,78.33
2018-12-31T12:50:42.219Z,78.64
2018-12-31T12:51:42.203Z,78.13
2018-12-31T12:52:42.230Z,78.44